Saturday, October 25, 2014, 11:59 AM EDT

KW99, Petersburg, Grant County Airport

Location: Petersburg, WV, United States Lat: 38.983
Local Time: 11:59 AM EDT (15:59 GMT) Lon: -79.133
Time Zone: US/Eastern Elev: 961 ft

Show me the last for .
Show Decoded

2014-10-25 11:35 METAR KW99 251535Z AUTO 23012G15KT 10SM CLR 18/04 A2996 RMK AO2 T01780041 =
2014-10-25 11:15 METAR KW99 251515Z AUTO 00000KT 10SM CLR 16/06 A2997 RMK AO2 T01550058 =
2014-10-25 10:55 METAR KW99 251455Z AUTO 00000KT 10SM CLR 12/07 A2997 RMK AO2 T01240065 =
2014-10-25 10:35 METAR KW99 251435Z AUTO 00000KT 10SM CLR 10/06 A2998 RMK AO2 T01020061 =
2014-10-25 10:15 METAR KW99 251415Z AUTO 00000KT 10SM CLR 08/04 A2999 RMK AO2 T00760043 =
2014-10-25 09:55 METAR KW99 251355Z AUTO 00000KT 10SM CLR 06/03 A3000 RMK AO2 T00570030 =
2014-10-25 09:35 METAR KW99 251335Z AUTO 00000KT 10SM CLR 04/02 A3002 RMK AO2 T00440022 =
2014-10-25 09:15 METAR KW99 251315Z AUTO 00000KT 10SM CLR 03/02 A3002 RMK AO2 T00330019 =
2014-10-25 08:35 METAR KW99 251235Z AUTO 00000KT 5SM BR CLR 02/01 A3003 RMK AO2 T00160006 =
2014-10-25 08:15 METAR KW99 251215Z AUTO 00000KT 5SM BR CLR 01/00 A3002 RMK AO2 T00090000 =
2014-10-25 07:55 METAR KW99 251155Z AUTO 00000KT 7SM CLR 01/00 A3001 RMK AO2 T00080000 10024
                 21004 =
2014-10-25 07:35 METAR KW99 251135Z AUTO 00000KT 7SM CLR 01/00 A3002 RMK AO2 T00061001 =
2014-10-25 07:15 METAR KW99 251115Z AUTO 00000KT 7SM CLR 01/00 A3001 RMK AO2 T00051002 =
2014-10-25 06:55 METAR KW99 251055Z AUTO 00000KT 7SM CLR 00/00 A3001 RMK AO2 T00041004 =
2014-10-25 06:35 METAR KW99 251035Z AUTO 00000KT 7SM CLR 00/00 A3001 RMK AO2 T00031005 =
2014-10-25 06:15 METAR KW99 251015Z AUTO 00000KT 10SM CLR 00/M01 A3001 RMK AO2 T10011010 =
2014-10-25 05:55 METAR KW99 250955Z AUTO 00000KT 7SM SCT043 00/M01 A3001 RMK AO2 T00001007 =
2014-10-25 05:35 METAR KW99 250935Z AUTO 00000KT 7SM CLR 00/M01 A3002 RMK AO2 T10041014 =
2014-10-25 05:15 METAR KW99 250915Z AUTO 00000KT 10SM CLR 00/M01 A3002 RMK AO2 T10011010 =
2014-10-25 04:55 METAR KW99 250855Z AUTO 00000KT 7SM CLR 00/M01 A3001 RMK AO2 T00001007 =
2014-10-25 04:35 METAR KW99 250835Z AUTO 30004KT 5SM BR CLR 01/00 A3001 RMK AO2 T00100000 =
2014-10-25 03:55 METAR KW99 250755Z AUTO 00000KT 10SM CLR 02/01 A3002 RMK AO2 T00160006 =
2014-10-25 03:35 METAR KW99 250735Z AUTO 00000KT 7SM CLR 01/00 A3002 RMK AO2 T00130003 =
2014-10-25 03:15 METAR KW99 250715Z AUTO 00000KT 7SM CLR 01/00 A3003 RMK AO2 T00120002 =
2014-10-25 02:55 METAR KW99 250655Z AUTO 00000KT 10SM CLR 02/01 A3003 RMK AO2 T00180008 =
2014-10-25 02:35 METAR KW99 250635Z AUTO 00000KT 10SM CLR 02/01 A3003 RMK AO2 T00160005 =
2014-10-25 02:15 METAR KW99 250615Z AUTO 00000KT 7SM CLR 02/01 A3003 RMK AO2 T00220012 =
2014-10-25 01:55 METAR KW99 250555Z AUTO 00000KT 10SM CLR 02/01 A3003 RMK AO2 T00170006 10106
                 20017 401970017 =
2014-10-25 01:35 METAR KW99 250535Z AUTO 00000KT 10SM CLR 02/01 A3003 RMK AO2 T00190007 =
2014-10-25 01:15 METAR KW99 250515Z AUTO 00000KT 10SM CLR 02/01 A3003 RMK AO2 T00240013 =
2014-10-25 00:55 METAR KW99 250455Z AUTO 00000KT 10SM CLR 02/01 A3003 RMK AO2 T00230012 =
2014-10-25 00:35 METAR KW99 250435Z AUTO 00000KT 10SM CLR 02/01 A3003 RMK AO2 T00220009 =
2014-10-25 00:15 METAR KW99 250415Z AUTO 00000KT 10SM CLR 04/02 A3003 RMK AO2 T00360022 =
2014-10-24 23:55 METAR KW99 250355Z AUTO 00000KT 10SM CLR 04/02 A3004 RMK AO2 T00360023 =
2014-10-24 23:15 METAR KW99 250315Z AUTO 00000KT 10SM CLR 04/02 A3005 RMK AO2 T00370019 =
2014-10-24 22:35 METAR KW99 250235Z AUTO 00000KT 10SM CLR 04/02 A3004 RMK AO2 T00420020 =
2014-10-24 22:15 METAR KW99 250215Z AUTO 00000KT 10SM CLR 06/02 A3003 RMK AO2 T00570023 =
2014-10-24 21:55 METAR KW99 250155Z AUTO 00000KT 10SM CLR 06/02 A3003 RMK AO2 T00550018 =
2014-10-24 21:35 METAR KW99 250135Z AUTO 00000KT 10SM CLR 06/02 A3003 RMK AO2 T00580023 =
2014-10-24 21:15 METAR KW99 250115Z AUTO 00000KT 10SM CLR 07/02 A3002 RMK AO2 T00710017 =
2014-10-24 20:55 METAR KW99 250055Z AUTO 00000KT 10SM CLR 07/03 A3002 RMK AO2 T00710025 =
2014-10-24 20:35 METAR KW99 250035Z AUTO 00000KT 10SM CLR 08/03 A3002 RMK AO2 T00790025 =
2014-10-24 20:15 METAR KW99 250015Z AUTO 00000KT 10SM CLR 09/02 A3001 RMK AO2 T00920021 =
2014-10-24 19:55 METAR KW99 242355Z AUTO 00000KT 10SM CLR 11/02 A3001 RMK AO2 T01080016 10197
                 20095 =
2014-10-24 19:35 METAR KW99 242335Z AUTO 25003KT 10SM CLR 10/02 A3001 RMK AO2 T01030015 =
2014-10-24 19:15 METAR KW99 242315Z AUTO 31003KT 10SM CLR 12/02 A3000 RMK AO2 T01160015 =
2014-10-24 18:55 METAR KW99 242255Z AUTO 25003KT 10SM CLR 13/01 A3000 RMK AO2 T01280007 =
2014-10-24 18:35 METAR KW99 242235Z AUTO 32004KT 10SM CLR 15/00 A3000 RMK AO2 T01501005 =
2014-10-24 18:15 METAR KW99 242215Z AUTO 30008KT 10SM CLR 16/M01 A3000 RMK AO2 T01581010 =
2014-10-24 17:55 METAR KW99 242155Z AUTO 30008KT 7SM CLR 16/00 A2999 RMK AO2 T01601005 =
2014-10-24 17:30 METAR KW99 242130Z AUTO 30006KT 10SM CLR 18/M02 A2998 RMK AO2 T01801022 =
2014-10-24 17:15 METAR KW99 242115Z AUTO 34006KT 10SM CLR 19/M02 A2998 RMK AO2 T01851025 =
2014-10-24 16:55 METAR KW99 242055Z AUTO 31008KT 10SM CLR 19/M03 A2997 RMK AO2 T01871026 =
2014-10-24 16:35 METAR KW99 242035Z AUTO 33004KT 10SM CLR 20/M02 A2997 RMK AO2 T01961022 =
2014-10-24 16:15 METAR KW99 242015Z AUTO 00000KT 10SM CLR 19/M02 A2997 RMK AO2 T01941020 =
2014-10-24 15:55 METAR KW99 241955Z AUTO 00000KT 10SM CLR 19/M01 A2997 RMK AO2 T01931008 =
2014-10-24 15:35 METAR KW99 241935Z AUTO 15003KT 10SM CLR 19/M01 A2997 RMK AO2 T01911014 =
2014-10-24 15:15 METAR KW99 241915Z AUTO 00000KT 10SM CLR 19/00 A2997 RMK AO2 T01881002 =
2014-10-24 14:55 METAR KW99 241855Z AUTO 00000KT 10SM CLR 19/M01 A2997 RMK AO2 T01861013 =
2014-10-24 14:35 METAR KW99 241835Z AUTO 14003KT 10SM CLR 18/00 A2998 RMK AO2 T01770002 =
2014-10-24 14:15 METAR KW99 241815Z AUTO 27003KT 10SM CLR 17/M01 A2999 RMK AO2 T01691006 =
2014-10-24 13:55 METAR KW99 241755Z AUTO 00000KT 10SM CLR 17/01 A3000 RMK AO2 T01650014 10168
                 20031 =
2014-10-24 13:35 METAR KW99 241735Z AUTO 00000KT 10SM CLR 16/02 A3001 RMK AO2 T01610019 =
2014-10-24 13:15 METAR KW99 241715Z AUTO 16003KT 10SM CLR 16/03 A3002 RMK AO2 T01600028 =
2014-10-24 12:55 METAR KW99 241655Z AUTO 00000KT 10SM CLR 15/03 A3003 RMK AO2 T01470031 =
2014-10-24 12:35 METAR KW99 241635Z AUTO 00000KT 10SM CLR 14/03 A3004 RMK AO2 T01440032 =
2014-10-24 12:15 METAR KW99 241615Z AUTO 00000KT 10SM CLR 14/03 A3005 RMK AO2 T01410033 =

Support USWX by starting your Amazon purchase here.